D/T METAR WX W/SPE G/SPE TEMP DEWP FEEL
31/01/23 07:20 EGVP 310720Z 22007KT 9999 BKN015 05/04 Q1025 RMK WHT 8.1mph 5°C 4°C 4.0°C
31/01/23 05:50 EGVP 310550Z AUTO 21004KT 9999 FEW019/// BKN044/// 04/03 Q1025 4.6mph 4°C 3°C 2.7°C
31/01/23 04:20 EGVP 310420Z AUTO 25006KT 9999 BKN012/// 04/02 Q1026 6.9mph 4°C 2°C 2.4°C
30/01/23 21:50 EGVP 302150Z AUTO 25004KT 9999 BKN100/// 02/02 Q1028 4.6mph 2°C 2°C 0.4°C
30/01/23 12:50 EGVP 301250Z 31011KT 9999 FEW022 SCT170 08/03 Q1026 NOSIG RMK BLU BLU 12.7mph 8°C 3°C 6.7°C
30/01/23 11:50 EGVP 301150Z 30009KT CAVOK 07/03 Q1026 NOSIG RMK BLU BLU 10.4mph 7°C 3°C 5.7°C
30/01/23 10:50 EGVP 301050Z 28007KT CAVOK 06/02 Q1026 NOSIG RMK BLU BLU 8.1mph 6°C 2°C 4.4°C
30/01/23 10:20 EGVP 301020Z 29008KT CAVOK 05/02 Q1026 NOSIG RMK BLU BLU 9.2mph 5°C 2°C 3.4°C
30/01/23 09:50 EGVP 300950Z 29011KT CAVOK 05/01 Q1025 NOSIG RMK BLU BLU 12.7mph 5°C 1°C 3.1°C
30/01/23 07:50 EGVP 300750Z 32006KT 9999 FEW020 04/00 Q1025 NOSIG RMK BLU BLU 6.9mph 4°C 0°C 1.8°C
30/01/23 06:50 EGVP 300650Z 31013KT 9999 FEW022 06/02 Q1024 RMK BLU 15.0mph 6°C 2°C 4.4°C
09/01/23 06:20 EGVP 090620Z AUTO 25012KT 9999 -RA FEW021/// BKN033/// 05/04 Q0996 -RA 13.8mph 5°C 4°C 4.0°C
09/01/23 05:50 EGVP 090550Z 26010KT 9999 FEW025 06/03 Q0995 RMK BLU 11.5mph 6°C 3°C 4.7°C
09/01/23 05:20 EGVP 090520Z AUTO 26013KT 9999 FEW023/// OVC100/// 06/04 Q0995 15.0mph 6°C 4°C 5.0°C
09/01/23 04:50 EGVP 090450Z AUTO 26012KT 9999 OVC110/// 06/04 Q0995 13.8mph 6°C 4°C 5.0°C
09/01/23 04:20 EGVP 090420Z AUTO 25011KT 9999 // FEW021/// OVC140/// 06/05 Q0994 12.7mph 6°C 5°C 5.3°C
09/01/23 03:50 EGVP 090350Z AUTO 25012KT 9999 // SCT025/// BKN120/// 06/05 Q0994 13.8mph 6°C 5°C 5.3°C
09/01/23 03:20 EGVP 090320Z AUTO /////KT 9999 -DZ OVC014/// 06/05 Q0993 -DZ 6°C 5°C 5.3°C
09/01/23 02:50 EGVP 090250Z AUTO /////KT 2200 RA OVC018/// 06/05 Q0993 RA 6°C 5°C 5.3°C
09/01/23 02:20 EGVP 090220Z AUTO /////KT 9999 OVC017/// 06/05 Q0993 6°C 5°C 5.3°C
09/01/23 01:20 EGVP 090120Z AUTO 26012KT 9999 FEW140/// 06/04 Q0991 13.8mph 6°C 4°C 5.0°C
09/01/23 00:50 EGVP 090050Z AUTO /////KT 9999 // NCD 06/04 Q0991 6°C 4°C 5.0°C
09/01/23 00:20 EGVP 090020Z AUTO 27014KT 9999 // FEW023/// 06/04 Q0990 16.1mph 6°C 4°C 5.0°C
08/01/23 23:50 EGVP 082350Z AUTO 28016KT 9999 -RA SCT011/// SCT042/// 07/04 Q0990 -RA 18.4mph 7°C 4°C 6.0°C
08/01/23 23:20 EGVP 082320Z AUTO 27014KT 9999 // OVC009/// 07/05 Q0989 16.1mph 7°C 5°C 6.3°C
08/01/23 22:50 EGVP 082250Z AUTO 26014KT 9999 // OVC012/// 07/05 Q0988 16.1mph 7°C 5°C 6.3°C
08/01/23 22:20 EGVP 082220Z AUTO 24008KT 9999 RA OVC012/// 07/05 Q0987 RA 9.2mph 7°C 5°C 6.3°C
08/01/23 21:50 EGVP 082150Z AUTO 23006KT 7000 RA OVC015/// 07/05 Q0987 RA 6.9mph 7°C 5°C 6.3°C
08/01/23 20:20 EGVP 082020Z AUTO 17007KT 9999 -RA FEW014/// OVC023/// 05/04 Q0988 -RA 8.1mph 5°C 4°C 4.0°C
08/01/23 19:20 EGVP 081920Z AUTO 19008KT 9999 SCT061/// BKN210/// 04/03 Q0989 9.2mph 4°C 3°C 2.7°C
08/01/23 18:50 EGVP 081850Z AUTO 19006KT 9999 FEW220/// 04/02 Q0989 6.9mph 4°C 2°C 2.4°C
08/01/23 18:20 EGVP 081820Z AUTO 21004KT 9999 NCD 04/03 Q0990 4.6mph 4°C 3°C 2.7°C
08/01/23 17:50 EGVP 081750Z AUTO 21005KT 9999 NCD 04/03 Q0989 5.8mph 4°C 3°C 2.7°C
08/01/23 17:20 EGVP 081720Z AUTO 24010KT 9999 NCD 05/03 Q0990 11.5mph 5°C 3°C 3.7°C
08/01/23 16:50 EGVP 081650Z AUTO 23006KT 9999 // FEW029/// 05/04 Q0990 6.9mph 5°C 4°C 4.0°C
08/01/23 16:20 EGVP 081620Z AUTO 25010KT 9999 // FEW029/// 06/04 Q0989 11.5mph 6°C 4°C 5.0°C
08/01/23 15:50 EGVP 081550Z AUTO 26013KT 9999 -RA FEW009/// SCT043/// 06/05 Q0989 -RA 15.0mph 6°C 5°C 5.3°C
08/01/23 15:20 EGVP 081520Z AUTO 25011KT 9999 +RA OVC007/// 06/05 Q0988 +RA 12.7mph 6°C 5°C 5.3°C
08/01/23 14:20 EGVP 081420Z AUTO /////KT 9999 -RA FEW016/// OVC027/// 08/06 Q0989 -RA 8°C 6°C 7.6°C
08/01/23 13:50 EGVP 081350Z AUTO /////KT 9999 -RA FEW018/// OVC030/// 08/06 Q0989 -RA 8°C 6°C 7.6°C
08/01/23 13:20 EGVP 081320Z AUTO /////KT 9999 // BKN042/// OVC100/// 07/06 Q0989 7°C 6°C 6.6°C
08/01/23 12:50 EGVP 081250Z AUTO /////KT 9999 // SCT019/// SCT029/// 06/05 Q0989 6°C 5°C 5.3°C
08/01/23 12:20 EGVP 081220Z AUTO 24013KT 3300 +RA OVC009/// 06/05 Q0990 +RA 15.0mph 6°C 5°C 5.3°C
08/01/23 11:50 EGVP 081150Z AUTO 19014KT 5000 RA OVC010/// 08/06 Q0990 RA 16.1mph 8°C 6°C 7.6°C
08/01/23 11:20 EGVP 081120Z AUTO 18013KT 9999 // SCT012/// BKN110/// 08/06 Q0991 15.0mph 8°C 6°C 7.6°C
08/01/23 10:50 EGVP 081050Z AUTO 20011KT 9999 -RA SCT011/// OVC042/// 08/06 Q0992 -RA 12.7mph 8°C 6°C 7.6°C
08/01/23 10:20 EGVP 081020Z AUTO 20019G29KT 9999 RA SCT013/// OVC026/// 08/06 Q0992 RA 21.9mph 33.4mph 8°C 6°C 7.6°C
08/01/23 09:50 EGVP 080950Z AUTO 21013KT 9999 -RA BKN017/// SCT068/// 08/06 Q0992 -RA 15.0mph 8°C 6°C 7.6°C
08/01/23 09:20 EGVP 080920Z AUTO 18010KT 9999 // FEW021/// OVC130/// 07/06 Q0993 11.5mph 7°C 6°C 6.6°C
08/01/23 08:50 EGVP 080850Z AUTO 18009KT 9999 // FEW008/// OVC140/// 06/05 Q0993 10.4mph 6°C 5°C 5.3°C
08/01/23 08:20 EGVP 080820Z AUTO 19007KT 9999 -RA OVC007/// 06/06 Q0993 -RA 8.1mph 6°C 6°C 5.6°C
08/01/23 07:50 EGVP 080750Z AUTO 16008KT 9999 // OVC019/// 06/05 Q0993 9.2mph 6°C 5°C 5.3°C
08/01/23 07:20 EGVP 080720Z AUTO 15006KT 9999 -RA FEW023/// BKN037/// 05/04 Q0994 -RA 6.9mph 5°C 4°C 4.0°C
08/01/23 06:50 EGVP 080650Z AUTO 19007KT 9999 FEW023/// BKN064/// 06/05 Q0994 8.1mph 6°C 5°C 5.3°C
08/01/23 06:20 EGVP 080620Z AUTO 20007KT 9999 FEW020/// 06/05 Q0994 8.1mph 6°C 5°C 5.3°C
08/01/23 05:50 EGVP 080550Z AUTO 17007KT 9999 // FEW012/// SCT027/// 05/05 Q0994 8.1mph 5°C 5°C 4.3°C
08/01/23 05:20 EGVP 080520Z AUTO 19009KT 9999 // SCT016/// BKN170/// 06/05 Q0995 10.4mph 6°C 5°C 5.3°C
08/01/23 04:50 EGVP 080450Z AUTO 17008KT 9999 -RA FEW025/// SCT099/// 06/05 Q0995 -RA 9.2mph 6°C 5°C 5.3°C
08/01/23 04:20 EGVP 080420Z AUTO 18009KT 9999 // BKN033/// 06/05 Q0995 10.4mph 6°C 5°C 5.3°C
08/01/23 03:50 EGVP 080350Z AUTO 20009KT 9999 // FEW043/// SCT190/// 06/05 Q0995 10.4mph 6°C 5°C 5.3°C
08/01/23 03:20 EGVP 080320Z AUTO 20011KT 9999 RA FEW035/// SCT048/// BKN071/// 07/05 Q0996 RA 12.7mph 7°C 5°C 6.3°C
08/01/23 02:50 EGVP 080250Z AUTO 20012KT 9999 -RA FEW039/// BKN070/// 07/05 Q0996 -RA 13.8mph 7°C 5°C 6.3°C
08/01/23 02:20 EGVP 080220Z AUTO 25010G22KT 9999 +RA OVC012/// 07/05 Q0996 +RA 11.5mph 25.3mph 7°C 5°C 6.3°C
08/01/23 01:50 EGVP 080150Z AUTO 20010KT 9999 BKN028/// BKN140/// 08/06 Q0995 11.5mph 8°C 6°C 7.6°C
08/01/23 01:20 EGVP 080120Z AUTO 21010KT 9999 // FEW034/// SCT180/// 08/05 Q0996 11.5mph 8°C 5°C 7.3°C
08/01/23 00:20 EGVP 080020Z AUTO /////KT 8000 -RA OVC020/// 07/06 Q0996 -RA 7°C 6°C 6.6°C
07/01/23 23:50 EGVP 072350Z AUTO 22015KT 9999 RA FEW013/// OVC028/// 08/05 Q0996 RA 17.3mph 8°C 5°C 7.3°C
07/01/23 23:20 EGVP 072320Z AUTO 22013KT 9999 RA FEW013/// OVC023/// 08/06 Q0997 RA 15.0mph 8°C 6°C 7.6°C
07/01/23 22:50 EGVP 072250Z AUTO 21012KT 9999 BKN023/// BKN180/// 08/06 Q0996 13.8mph 8°C 6°C 7.6°C
07/01/23 22:20 EGVP 072220Z AUTO 20013KT 9999 FEW021/// SCT200/// 08/06 Q0996 15.0mph 8°C 6°C 7.6°C
07/01/23 21:50 EGVP 072150Z AUTO 21011KT 9999 FEW026/// 08/05 Q0997 12.7mph 8°C 5°C 7.3°C
07/01/23 21:20 EGVP 072120Z AUTO 21009KT 9999 BKN021/// 07/05 Q0997 10.4mph 7°C 5°C 6.3°C
07/01/23 20:50 EGVP 072050Z AUTO 17006KT 9999 OVC022/// 07/05 Q0997 6.9mph 7°C 5°C 6.3°C
07/01/23 20:20 EGVP 072020Z AUTO 18008KT 9999 BKN029/// 06/04 Q0997 9.2mph 6°C 4°C 5.0°C
07/01/23 19:50 EGVP 071950Z AUTO 21009KT 9999 SCT057/// 07/04 Q0997 10.4mph 7°C 4°C 6.0°C
07/01/23 19:20 EGVP 071920Z AUTO /////KT 9999 NCD 06/04 Q0997 6°C 4°C 5.0°C
07/01/23 18:50 EGVP 071850Z AUTO /////KT 9999 // NCD 07/05 Q0997 7°C 5°C 6.3°C
07/01/23 18:20 EGVP 071820Z AUTO 22013KT 9999 // OVC012/// 07/06 Q0996 15.0mph 7°C 6°C 6.6°C
07/01/23 17:50 EGVP 071750Z AUTO 21013G23KT 1200 +RA FEW013/// BKN020/// BKN048/// 08/06 Q0996 +RA 15.0mph 26.5mph 8°C 6°C 7.6°C
07/01/23 17:20 EGVP 071720Z AUTO 22012KT 9999 // FEW046/// BKN099/// 08/06 Q0995 13.8mph 8°C 6°C 7.6°C
07/01/23 16:50 EGVP 071650Z AUTO 22015KT 9999 -RA SCT015/// BKN032/// 08/07 Q0995 -RA 17.3mph 8°C 7°C 8.0°C
07/01/23 16:20 EGVP 071620Z AUTO 22016KT 5000 -RA FEW015/// OVC023/// 09/07 Q0995 -RA 18.4mph 9°C 7°C 9.0°C
07/01/23 15:50 EGVP 071550Z AUTO 20020G30KT 9999 -RA OVC020/// 10/08 Q0994 -RA 23.0mph 34.5mph 10°C 8°C 10.4°C
07/01/23 15:20 EGVP 071520Z AUTO 20019KT 9999 -RA FEW012/// BKN021/// 11/08 Q0995 -RA 21.9mph 11°C 8°C 11.4°C
07/01/23 14:50 EGVP 071450Z AUTO 20016KT 9999 // OVC015/// 11/08 Q0995 18.4mph 11°C 8°C 11.4°C
07/01/23 14:20 EGVP 071420Z AUTO 20017KT 9999 -RA OVC010/// 11/09 Q0995 -RA 19.6mph 11°C 9°C 11.8°C
07/01/23 13:50 EGVP 071350Z AUTO 20014KT 9999 -RA OVC010/// 11/09 Q0995 -RA 16.1mph 11°C 9°C 11.8°C
07/01/23 12:50 EGVP 071250Z AUTO 20017KT 9999 // OVC006/// 11/09 Q0996 19.6mph 11°C 9°C 11.8°C
07/01/23 12:20 EGVP 071220Z AUTO 21017G27KT 1000 +RA OVC006/// 11/10 Q0996 +RA 19.6mph 31.1mph 11°C 10°C 12.3°C
07/01/23 11:50 EGVP 071150Z AUTO 20018G28KT 9000 // OVC010/// 11/10 Q0996 20.7mph 32.2mph 11°C 10°C 12.3°C
07/01/23 11:20 EGVP 071120Z AUTO 20019G29KT 9999 -DZ OVC009/// 11/10 Q0997 -DZ 21.9mph 33.4mph 11°C 10°C 12.3°C
07/01/23 10:50 EGVP 071050Z AUTO 20017KT 9999 -DZ OVC010/// 11/09 Q0998 -DZ 19.6mph 11°C 9°C 11.8°C
07/01/23 10:20 EGVP 071020Z AUTO 19018KT 9999 RA OVC010/// 11/09 Q0998 RA 20.7mph 11°C 9°C 11.8°C
07/01/23 09:50 EGVP 070950Z AUTO 19020G32KT 9999 -RA OVC009/// 11/09 Q0998 -RA 23.0mph 36.8mph 11°C 9°C 11.8°C
07/01/23 09:20 EGVP 070920Z AUTO 20022G32KT 9999 -RA OVC009/// 11/09 Q0998 -RA 25.3mph 36.8mph 11°C 9°C 11.8°C
07/01/23 08:50 EGVP 070850Z AUTO 19021G32KT 9999 -RA OVC009/// 11/09 Q0998 -RA 24.2mph 36.8mph 11°C 9°C 11.8°C